Pagrindinis puslapis
METAR-TAF:

METAR-TAF

Oro uostai :

Visakhapatnamas, Indija

platuma: 17-43-16N, ilguma: 83-13-28E, Aukštis: 6 m

Dabartinis oras

Ataskaita buvo paskelbta 2 valandos ir 52 minutes, ne 18:00 UTC
Vėjas 2 kt nuo kintamojo kryptimis
Temperatūra 27°C
Drėgmė 89%
Slėgis 1005 hPa
Matomumas: 3000 m
Mažai debesys ne aukštis 1800 ft
Išsisklaidę debesys ne aukštis 9000 ft
rūkana, dūmai

METAR: VOVZ 171800Z VRB02KT 3000 BR FU FEW018 SCT090 27/25 Q1005 NOSIG

Laikas: 02:22 (20:52 UTC)

Prognozė

Ataskaita buvo paskelbta 3 valandos ir 52 minutes, ne 17:00 UTC
Prognozė galioja nuo 17 metu 18 UTC su 18 metu 03 UTC
Vėjas 2 kt nuo kintamojo kryptimis
Matomumas: 3000 m
Mažai debesys ne aukštis 1800 ft
Išsisklaidę debesys ne aukštis 9000 ft
rūkana, dūmai
Laikinai
nuo 17 metu 23 UTC su 18 metu 02 UTC
Matomumas: 1500 m
rūkana, dūmai

TAF: VOVZ 171700Z 1718/1803 VRB02KT 3000 BR FU FEW018 SCT090 TEMPO 1723/1802 1500 BR FU

Orai ataskaitas ir orų prognozės (METAR, TAF).

turimą stotys yra geltonos ir raudonos taškus žemėlapyje.

Perkelti pele per norėdami pamatyti stoties vardą.

Tada spustelėkite, norėdami matyti oro stebėjimo ir prognozės.

Norėdami pakeisti žemėlapį: spustelėkite ant žalios mygtukų su juodo kryžiaus žemyn,; žalią mygtuką su brūkšneliu, jei norite nutolinti; arba žalių rodyklių gretimoms žemėlapius.


METAR-TAF: